Time;durP1;ratioP1;P1;durP2;ratioP2;P2;SDS_P1;SDS_P2;PMS_P1;PMS_P2;Temp;Humidity;BMP_temperature;BMP_pressure;BME280_temperature;BME280_humidity;BME280_pressure;Samples;Min_cycle;Max_cycle;Signal;HPM_P1;HPM_P2
2022/06/11 00:01:24;;;;;;;3.43;2.03;;;;;;;13.63;80.04;99246.03;5094704;28;20193;-52
2022/06/11 00:03:55;;;;;;;3.37;1.77;;;;;;;13.57;80.28;99250.09;5095649;28;20183;-53
2022/06/11 00:06:24;;;;;;;5.03;1.70;;;;;;;13.59;79.42;99242.91;5095431;28;20556;-51
2022/06/11 00:08:52;;;;;;;4.87;2.00;;;;;;;13.65;79.68;99252.78;5095149;28;20207;-50
2022/06/11 00:11:21;;;;;;;9.77;2.63;;;;;;;13.66;79.75;99246.56;5095222;28;20182;-52
2022/06/11 00:13:48;;;;;;;5.60;1.93;;;;;;;13.63;80.22;99246.88;5094645;28;20659;-51
2022/06/11 00:16:18;;;;;;;4.30;2.30;;;;;;;13.54;81.92;99250.41;5094844;28;20190;-51
2022/06/11 00:18:46;;;;;;;4.30;2.00;;;;;;;13.53;81.78;99246.16;5094718;28;20218;-51
2022/06/11 00:21:15;;;;;;;4.97;2.10;;;;;;;13.45;81.00;99249.53;5095012;28;20558;-51
2022/06/11 00:23:44;;;;;;;5.33;2.30;;;;;;;13.42;81.46;99252.44;5095137;28;20222;-53
2022/06/11 00:26:13;;;;;;;6.90;2.30;;;;;;;13.37;82.14;99255.53;5094876;28;20271;-51
2022/06/11 00:28:40;;;;;;;7.17;2.20;;;;;;;13.36;80.53;99253.88;5094612;28;20624;-51
2022/06/11 00:31:09;;;;;;;4.10;1.90;;;;;;;13.31;81.32;99257.91;5093278;28;20193;-51
2022/06/11 00:33:36;;;;;;;6.03;2.33;;;;;;;13.29;80.85;99256.25;5095006;28;20214;-51
2022/06/11 00:36:05;;;;;;;7.23;2.30;;;;;;;13.27;81.96;99258.22;5094724;28;20182;-51
2022/06/11 00:38:33;;;;;;;3.77;2.10;;;;;;;13.23;83.22;99258.69;5094036;28;20209;-52
2022/06/11 00:41:01;;;;;;;4.90;2.30;;;;;;;13.24;82.03;99250.69;5093522;28;20252;-52
2022/06/11 00:43:31;;;;;;;5.77;2.23;;;;;;;13.22;82.62;99254.41;5094463;28;20269;-51
2022/06/11 00:46:02;;;;;;;4.97;1.90;;;;;;;13.25;83.21;99254.13;5094826;28;20190;-51
2022/06/11 00:48:33;;;;;;;5.67;1.97;;;;;;;13.22;83.82;99250.00;5094207;28;20557;-51
2022/06/11 00:51:04;;;;;;;4.00;2.17;;;;;;;13.17;82.89;99254.88;5093045;28;20189;-51
2022/06/11 00:53:53;;;;;;;6.40;2.50;;;;;;;13.16;83.20;99249.78;5094769;28;20193;-52
2022/06/11 00:56:25;;;;;;;5.43;2.40;;;;;;;13.16;84.36;99248.00;5094205;28;20191;-51
2022/06/11 00:58:56;;;;;;;3.60;2.37;;;;;;;13.12;84.50;99251.91;5093454;28;20205;-51
2022/06/11 01:01:25;;;;;;;5.47;2.50;;;;;;;13.11;85.36;99247.63;5094090;28;20583;-51
2022/06/11 01:03:54;;;;;;;6.33;2.30;;;;;;;13.12;86.10;99252.72;5094070;28;20197;-52
2022/06/11 01:06:28;;;;;;;6.40;2.87;;;;;;;13.09;87.61;99249.59;5094615;28;20587;-51
2022/06/11 01:09:02;;;;;;;3.97;2.37;;;;;;;12.97;86.55;99251.59;5093965;28;20497;-51
2022/06/11 01:11:48;;;;;;;6.63;2.40;;;;;;;12.97;84.51;99252.44;5094449;28;20250;-51
2022/06/11 01:14:32;;;;;;;7.30;2.53;;;;;;;13.02;86.20;99246.72;5092889;28;20245;-51
2022/06/11 01:17:13;;;;;;;4.87;2.30;;;;;;;12.90;85.59;99245.31;5093860;28;20278;-51
2022/06/11 01:20:25;;;;;;;5.90;2.50;;;;;;;12.85;85.05;99246.59;5093985;28;20234;-51
2022/06/11 01:23:35;;;;;;;4.77;2.30;;;;;;;12.80;84.52;99250.63;5086145;28;20385;-51
2022/06/11 01:26:31;;;;;;;5.70;2.30;;;;;;;12.82;86.51;99246.88;5054961;28;20598;-51
2022/06/11 01:29:13;;;;;;;5.27;2.37;;;;;;;12.79;84.45;99243.75;5093752;28;20278;-51
2022/06/11 01:31:51;;;;;;;4.23;2.07;;;;;;;12.72;85.41;99246.13;5093833;28;20553;-51
2022/06/11 01:34:25;;;;;;;6.30;2.53;;;;;;;12.75;85.55;99248.44;5093662;28;20200;-51
2022/06/11 01:36:58;;;;;;;4.57;2.13;;;;;;;12.77;85.77;99248.31;5093489;28;20190;-51
2022/06/11 01:39:33;;;;;;;6.90;2.47;;;;;;;12.72;85.55;99246.13;5093416;28;20203;-51
2022/06/11 01:42:05;;;;;;;10.60;2.83;;;;;;;12.71;86.77;99241.91;5092297;28;20291;-51
2022/06/11 01:45:03;;;;;;;4.03;2.37;;;;;;;12.61;85.77;99244.56;5094428;28;20195;-51
2022/06/11 01:47:32;;;;;;;4.37;2.30;;;;;;;12.61;85.64;99252.41;5093715;28;20693;-51
2022/06/11 01:50:01;;;;;;;3.23;2.13;;;;;;;12.57;85.62;99248.44;5094277;28;20549;-52
2022/06/11 01:52:48;;;;;;;4.83;2.37;;;;;;;12.57;85.48;99247.66;5093753;28;20182;-51
2022/06/11 01:55:26;;;;;;;6.00;2.50;;;;;;;12.55;86.38;99243.38;5093354;28;20196;-51
2022/06/11 01:58:18;;;;;;;3.73;2.70;;;;;;;12.53;86.36;99240.09;5093610;28;20276;-51
2022/06/11 02:00:51;;;;;;;6.40;2.60;;;;;;;12.53;86.62;99247.94;5093588;28;20208;-51
2022/06/11 02:03:46;;;;;;;4.10;2.50;;;;;;;12.58;87.60;99244.88;5094090;28;20660;-51
2022/06/11 02:06:33;;;;;;;4.03;2.80;;;;;;;12.53;87.03;99247.09;5093805;28;20246;-51
2022/06/11 02:09:10;;;;;;;4.53;2.33;;;;;;;12.52;87.02;99251.53;5093794;28;20608;-52
2022/06/11 02:11:41;;;;;;;4.03;2.10;;;;;;;12.51;87.32;99249.03;5094043;28;20191;-53
2022/06/11 02:14:17;;;;;;;4.63;2.50;;;;;;;12.49;87.78;99243.13;5093828;28;20226;-51
2022/06/11 02:16:50;;;;;;;3.40;2.30;;;;;;;12.51;87.74;99249.03;5093554;28;20548;-50
2022/06/11 02:19:23;;;;;;;5.57;2.67;;;;;;;12.45;87.67;99245.22;5092869;28;20248;-52
2022/06/11 02:21:55;;;;;;;7.87;2.40;;;;;;;12.44;87.83;99246.22;5093543;28;20200;-51
2022/06/11 02:24:29;;;;;;;6.10;2.87;;;;;;;12.44;88.22;99245.38;5093964;28;20182;-51
2022/06/11 02:27:01;;;;;;;5.67;2.47;;;;;;;12.45;88.49;99247.84;5097203;28;20219;-53
2022/06/11 02:29:32;;;;;;;3.37;2.37;;;;;;;12.49;90.20;99243.97;5097465;28;20261;-51
2022/06/11 02:32:05;;;;;;;7.67;2.90;;;;;;;12.37;90.70;99240.72;5096895;28;20187;-51
2022/06/11 02:34:39;;;;;;;4.07;2.33;;;;;;;12.35;89.76;99245.28;5097314;28;20235;-51
2022/06/11 02:37:10;;;;;;;7.20;2.80;;;;;;;12.38;88.85;99252.03;5097177;28;20187;-51
2022/06/11 02:40:04;;;;;;;7.57;2.80;;;;;;;12.36;89.41;99240.88;5097154;28;20687;-53
2022/06/11 02:42:33;;;;;;;5.23;2.60;;;;;;;12.32;89.12;99242.94;5097000;28;20191;-51
2022/06/11 02:44:59;;;;;;;7.83;2.63;;;;;;;12.37;89.30;99245.97;5097078;28;20196;-51
2022/06/11 02:47:27;;;;;;;4.43;2.83;;;;;;;12.35;89.61;99247.09;5096794;28;20192;-51
2022/06/11 02:49:56;;;;;;;4.40;2.80;;;;;;;12.29;88.93;99248.47;5096901;28;20596;-51
2022/06/11 02:52:26;;;;;;;6.53;2.50;;;;;;;12.36;89.91;99253.97;5095992;28;20210;-52
2022/06/11 02:54:53;;;;;;;8.33;2.67;;;;;;;12.27;89.97;99252.22;5096820;28;20198;-52
2022/06/11 02:57:25;;;;;;;8.53;2.93;;;;;;;12.22;89.40;99258.72;5096917;28;20192;-52
2022/06/11 02:59:54;;;;;;;7.90;3.10;;;;;;;12.24;90.66;99261.19;5094811;28;20244;-51
2022/06/11 03:02:23;;;;;;;5.13;2.47;;;;;;;12.25;91.58;99252.34;5096399;28;20653;-52
2022/06/11 03:04:52;;;;;;;4.57;2.80;;;;;;;12.19;91.74;99258.22;5096762;28;20185;-52
2022/06/11 03:07:20;;;;;;;5.63;2.50;;;;;;;12.18;90.34;99254.75;5096635;28;20658;-51
2022/06/11 03:10:06;;;;;;;8.73;2.70;;;;;;;12.20;91.54;99252.81;5097165;28;20210;-51
2022/06/11 03:12:33;;;;;;;6.37;2.83;;;;;;;12.24;91.38;99248.09;5096431;28;20287;-51
2022/06/11 03:15:01;;;;;;;7.90;2.50;;;;;;;12.18;91.01;99253.94;5096819;28;20617;-54
2022/06/11 03:17:28;;;;;;;6.93;3.30;;;;;;;12.27;90.96;99255.66;5097551;28;20204;-53
2022/06/11 03:19:55;;;;;;;5.23;2.30;;;;;;;12.19;91.72;99255.59;5097265;28;20208;-53
2022/06/11 03:22:24;;;;;;;5.90;2.60;;;;;;;12.18;92.01;99265.22;5097552;28;20221;-54
2022/06/11 03:24:52;;;;;;;6.38;3.03;;;;;;;12.16;92.25;99259.31;5096206;28;20421;-50
2022/06/11 03:27:20;;;;;;;5.33;2.53;;;;;;;12.15;91.50;99265.50;5096312;28;20267;-50
2022/06/11 03:29:47;;;;;;;6.90;2.50;;;;;;;12.21;92.24;99264.94;5095939;28;20191;-51
2022/06/11 03:32:14;;;;;;;3.13;2.50;;;;;;;12.18;91.98;99267.03;5096749;28;20238;-53
2022/06/11 03:34:41;;;;;;;5.53;2.90;;;;;;;12.16;91.11;99261.13;5095908;28;20717;-51
2022/06/11 03:37:09;;;;;;;5.40;3.10;;;;;;;12.21;91.09;99262.31;5094934;28;20188;-51
2022/06/11 03:39:38;;;;;;;6.17;2.73;;;;;;;12.17;90.34;99257.53;5096127;28;20201;-50
2022/06/11 03:42:07;;;;;;;6.83;2.80;;;;;;;12.22;90.56;99265.75;5096801;28;20636;-51
2022/06/11 03:44:35;;;;;;;4.07;2.57;;;;;;;12.31;90.75;99266.69;5095992;28;20192;-51
2022/06/11 03:47:02;;;;;;;3.70;2.73;;;;;;;12.31;92.54;99269.28;5096779;28;20574;-53
2022/06/11 03:49:29;;;;;;;4.33;2.60;;;;;;;12.30;91.90;99273.69;5095984;28;20199;-51
2022/06/11 03:51:57;;;;;;;4.47;2.87;;;;;;;12.30;91.46;99280.72;5094754;28;20192;-51
2022/06/11 03:54:26;;;;;;;4.30;2.27;;;;;;;12.35;91.11;99283.72;5095768;28;20536;-51
2022/06/11 03:56:54;;;;;;;4.77;2.77;;;;;;;12.38;90.66;99286.88;5095564;28;20185;-53
2022/06/11 03:59:21;;;;;;;4.63;2.70;;;;;;;12.47;92.08;99285.19;5096411;28;20218;-53
2022/06/11 04:01:50;;;;;;;9.57;2.40;;;;;;;12.55;92.18;99282.66;5096385;28;20190;-52
2022/06/11 04:04:20;;;;;;;4.13;2.80;;;;;;;12.53;91.19;99284.59;5096303;28;20276;-51
2022/06/11 04:06:50;;;;;;;5.47;2.63;;;;;;;12.58;90.89;99293.81;5096402;28;20193;-51
2022/06/11 04:09:22;;;;;;;4.43;2.50;;;;;;;12.58;90.57;99289.38;5096052;28;20262;-51
2022/06/11 04:11:50;;;;;;;7.17;2.33;;;;;;;12.65;91.24;99300.91;5096307;28;20656;-51
2022/06/11 04:14:20;;;;;;;6.47;2.43;;;;;;;12.70;90.55;99300.50;5096563;28;20204;-51
2022/06/11 04:16:50;;;;;;;6.60;2.50;;;;;;;12.75;91.37;99292.97;5095648;28;20185;-51
2022/06/11 04:19:22;;;;;;;5.13;2.67;;;;;;;12.74;91.08;99301.81;5095001;28;20237;-51
2022/06/11 04:21:50;;;;;;;3.93;2.60;;;;;;;12.78;91.64;99308.41;5095088;28;20184;-51
2022/06/11 04:24:18;;;;;;;6.73;2.80;;;;;;;12.80;91.91;99301.22;5095338;28;20254;-50
2022/06/11 04:26:49;;;;;;;7.67;2.67;;;;;;;12.80;92.28;99306.47;5095963;28;20191;-51
2022/06/11 04:29:20;;;;;;;3.30;2.50;;;;;;;12.86;91.09;99305.06;5095292;28;20281;-51
2022/06/11 04:31:51;;;;;;;8.53;3.00;;;;;;;12.88;91.72;99308.34;5095728;28;20181;-51
2022/06/11 04:34:20;;;;;;;10.40;3.00;;;;;;;12.89;91.75;99307.38;5095424;28;20190;-51
2022/06/11 04:36:49;;;;;;;5.80;2.70;;;;;;;12.96;90.51;99307.59;5095727;28;20189;-52
2022/06/11 04:39:21;;;;;;;5.50;2.30;;;;;;;13.03;90.86;99313.09;5095120;28;20639;-51
2022/06/11 04:41:49;;;;;;;3.40;2.43;;;;;;;13.05;91.24;99314.56;5095466;28;20558;-51
2022/06/11 04:44:16;;;;;;;3.23;2.50;;;;;;;13.09;91.37;99315.09;5095634;28;20190;-51
2022/06/11 04:46:45;;;;;;;11.13;4.00;;;;;;;13.14;90.23;99313.66;5094507;28;20186;-53
2022/06/11 04:49:14;;;;;;;4.70;3.23;;;;;;;13.19;90.64;99322.88;5094130;28;20609;-52
2022/06/11 04:51:41;;;;;;;7.83;2.73;;;;;;;13.20;90.61;99312.25;5094421;28;20182;-51
2022/06/11 04:54:09;;;;;;;4.53;2.70;;;;;;;13.24;90.67;99316.22;5094760;28;20300;-52
2022/06/11 04:56:36;;;;;;;6.30;2.57;;;;;;;13.28;90.35;99314.13;5093880;28;20257;-51
2022/06/11 04:59:05;;;;;;;4.90;2.43;;;;;;;13.29;89.60;99316.56;5092730;28;20217;-51
2022/06/11 05:01:51;;;;;;;4.33;2.50;;;;;;;13.37;89.96;99320.22;5094963;28;20200;-52
2022/06/11 05:04:18;;;;;;;3.60;2.50;;;;;;;13.40;89.97;99326.00;5094536;28;20520;-53
2022/06/11 05:06:47;;;;;;;4.97;2.70;;;;;;;13.46;89.80;99329.03;5094350;28;20183;-51
2022/06/11 05:09:17;;;;;;;4.37;2.40;;;;;;;13.52;89.74;99324.00;5093595;28;20233;-51
2022/06/11 05:11:43;;;;;;;5.87;2.83;;;;;;;13.57;89.85;99326.16;5093950;28;20582;-51
2022/06/11 05:14:10;;;;;;;3.87;2.53;;;;;;;13.64;90.19;99326.38;5094112;28;20539;-51
2022/06/11 05:16:41;;;;;;;5.80;2.70;;;;;;;13.72;89.79;99331.69;5093746;28;20182;-51
2022/06/11 05:19:13;;;;;;;7.40;2.70;;;;;;;13.77;89.47;99332.03;5093355;28;20259;-51
2022/06/11 05:21:40;;;;;;;4.30;2.60;;;;;;;13.85;90.08;99332.09;5093369;28;20289;-51
2022/06/11 05:24:09;;;;;;;6.07;2.43;;;;;;;13.90;91.22;99336.88;5092135;28;20277;-52
2022/06/11 05:26:40;;;;;;;4.87;2.80;;;;;;;13.95;90.83;99336.41;5093768;28;20187;-51
2022/06/11 05:29:29;;;;;;;4.67;3.03;;;;;;;14.02;90.00;99343.50;5093863;28;20524;-51
2022/06/11 05:31:57;;;;;;;8.03;3.00;;;;;;;14.10;88.84;99337.50;5093734;28;20273;-52
2022/06/11 05:34:27;;;;;;;8.10;3.00;;;;;;;14.19;88.27;99333.09;5092388;28;20190;-51
2022/06/11 05:36:55;;;;;;;5.73;3.00;;;;;;;14.27;87.48;99341.00;5093432;28;20183;-51
2022/06/11 05:39:24;;;;;;;6.00;3.00;;;;;;;14.49;87.24;99344.06;5092854;28;20246;-51
2022/06/11 05:41:52;;;;;;;5.07;2.33;;;;;;;14.94;87.58;99343.88;5093221;28;20208;-51
2022/06/11 05:44:18;;;;;;;5.53;2.57;;;;;;;15.37;86.42;99346.41;5093117;28;20181;-51
2022/06/11 05:46:47;;;;;;;4.67;2.70;;;;;;;15.70;84.27;99347.19;5091853;28;20286;-51
2022/06/11 05:49:17;;;;;;;5.70;2.30;;;;;;;15.97;81.30;99353.09;5092559;28;20544;-52
2022/06/11 05:51:50;;;;;;;3.93;2.37;;;;;;;16.19;79.78;99358.63;5092686;28;20543;-51
2022/06/11 05:54:21;;;;;;;5.57;2.23;;;;;;;16.34;78.85;99362.22;5092949;28;20242;-52
2022/06/11 05:56:50;;;;;;;3.10;1.97;;;;;;;16.49;77.75;99357.03;5092798;28;20178;-51
2022/06/11 05:59:23;;;;;;;7.27;2.60;;;;;;;16.64;77.23;99361.59;5092902;28;20267;-51
2022/06/11 06:01:51;;;;;;;4.57;2.40;;;;;;;16.80;76.68;99358.06;5096783;28;20216;-51
2022/06/11 06:04:18;;;;;;;6.07;2.30;;;;;;;16.95;76.00;99361.59;5095648;28;20511;-51
2022/06/11 06:06:47;;;;;;;5.30;2.00;;;;;;;17.13;76.00;99363.16;5096883;28;20186;-51
2022/06/11 06:09:15;;;;;;;5.70;2.47;;;;;;;17.24;75.78;99362.75;5096569;28;20214;-52
2022/06/11 06:11:42;;;;;;;2.37;1.80;;;;;;;17.41;74.95;99366.09;5096645;28;20212;-51
2022/06/11 06:14:09;;;;;;;5.53;2.03;;;;;;;17.52;74.53;99369.28;5096809;28;20328;-53
2022/06/11 06:16:36;;;;;;;4.13;2.20;;;;;;;17.71;73.34;99368.00;5096582;28;20187;-53
2022/06/11 06:19:04;;;;;;;4.20;2.20;;;;;;;17.87;72.13;99364.38;5096230;28;20264;-52
2022/06/11 06:21:34;;;;;;;7.30;2.20;;;;;;;17.99;71.74;99364.75;5095099;28;20234;-53
2022/06/11 06:24:03;;;;;;;6.37;1.90;;;;;;;18.17;71.66;99375.00;5096487;28;20208;-51
2022/06/11 06:26:30;;;;;;;2.07;1.70;;;;;;;18.36;70.41;99372.81;5095081;28;20680;-52
2022/06/11 06:28:58;;;;;;;3.67;2.50;;;;;;;18.41;71.11;99373.88;5096026;28;20243;-52
2022/06/11 06:31:26;;;;;;;5.10;2.37;;;;;;;18.54;72.74;99377.69;5095923;28;20213;-53
2022/06/11 06:33:58;;;;;;;4.57;2.10;;;;;;;18.71;71.95;99381.78;5096057;28;20192;-51
2022/06/11 06:36:26;;;;;;;7.87;2.33;;;;;;;18.67;72.16;99380.50;5096320;28;20270;-51
2022/06/11 06:38:53;;;;;;;5.43;2.03;;;;;;;18.75;71.75;99382.22;5095664;28;20285;-51
2022/06/11 06:41:22;;;;;;;4.37;2.27;;;;;;;18.73;68.72;99378.94;5096203;28;20210;-51
2022/06/11 06:43:50;;;;;;;3.07;1.90;;;;;;;18.85;68.82;99381.94;5095982;28;20672;-54
2022/06/11 06:46:18;;;;;;;5.73;2.37;;;;;;;18.92;70.09;99380.19;5095776;28;20664;-51
2022/06/11 06:48:46;;;;;;;3.77;2.13;;;;;;;19.09;68.81;99382.59;5095758;28;20266;-51
2022/06/11 06:51:14;;;;;;;3.73;2.10;;;;;;;19.20;70.24;99383.94;5095804;28;20194;-52
2022/06/11 06:53:44;;;;;;;4.93;2.20;;;;;;;19.28;69.36;99383.84;5095996;28;20185;-51
2022/06/11 06:56:11;;;;;;;5.17;2.23;;;;;;;19.31;69.06;99386.09;5096078;28;20178;-53
2022/06/11 06:58:40;;;;;;;4.30;2.07;;;;;;;19.31;67.95;99375.50;5095534;28;20212;-51
2022/06/11 07:01:07;;;;;;;3.37;2.00;;;;;;;19.46;69.31;99372.78;5095644;28;20211;-52
2022/06/11 07:03:35;;;;;;;2.80;2.53;;;;;;;19.64;68.96;99374.97;5095647;28;20199;-53
2022/06/11 07:06:03;;;;;;;4.20;2.30;;;;;;;19.82;68.47;99377.16;5095901;28;20189;-51
2022/06/11 07:08:31;;;;;;;5.77;2.20;;;;;;;19.92;68.76;99376.84;5093946;28;20216;-54
2022/06/11 07:10:58;;;;;;;3.50;2.17;;;;;;;19.93;69.54;99378.47;5095563;28;20592;-51
2022/06/11 07:13:25;;;;;;;4.50;2.00;;;;;;;19.97;68.68;99373.63;5095570;28;20197;-52
2022/06/11 07:15:56;;;;;;;4.17;2.33;;;;;;;20.05;68.80;99376.91;5095618;28;20603;-53
2022/06/11 07:18:28;;;;;;;3.63;2.07;;;;;;;20.20;63.45;99386.59;5095482;28;20232;-52
2022/06/11 07:21:00;;;;;;;6.70;2.60;;;;;;;20.23;59.45;99378.25;5094842;28;20301;-51
2022/06/11 07:23:35;;;;;;;5.87;2.40;;;;;;;20.27;58.56;99373.38;5095703;28;20191;-53
2022/06/11 07:26:05;;;;;;;3.80;2.50;;;;;;;20.28;60.02;99375.00;5095603;28;20226;-52
2022/06/11 07:28:38;;;;;;;6.23;2.50;;;;;;;20.45;57.64;99380.81;5095837;28;20260;-51
2022/06/11 07:31:07;;;;;;;4.23;2.60;;;;;;;20.33;58.20;99391.13;5095828;28;20216;-51
2022/06/11 07:33:35;;;;;;;6.77;2.50;;;;;;;20.41;56.17;99383.03;5095246;28;20205;-53
2022/06/11 07:36:04;;;;;;;7.73;3.20;;;;;;;20.46;56.87;99380.59;5095069;28;20193;-51
2022/06/11 07:38:31;;;;;;;6.70;2.93;;;;;;;20.43;56.38;99383.66;5093658;28;20607;-51
2022/06/11 07:40:59;;;;;;;5.27;2.63;;;;;;;20.44;57.07;99382.63;5095090;28;20688;-51
2022/06/11 07:43:26;;;;;;;4.43;2.47;;;;;;;20.53;56.30;99382.47;5094916;28;20189;-54
2022/06/11 07:45:54;;;;;;;6.67;2.70;;;;;;;20.63;54.30;99382.91;5095133;28;20229;-54
2022/06/11 07:48:22;;;;;;;4.93;2.50;;;;;;;20.53;54.56;99371.84;5094730;28;20213;-53
2022/06/11 07:50:51;;;;;;;5.30;2.40;;;;;;;20.73;55.34;99369.28;5093644;28;20184;-51
2022/06/11 07:53:21;;;;;;;5.00;2.60;;;;;;;20.66;54.21;99374.56;5094944;28;20234;-52
2022/06/11 07:55:51;;;;;;;3.83;2.27;;;;;;;20.72;55.61;99370.28;5095437;28;20244;-53
2022/06/11 07:58:21;;;;;;;4.47;2.37;;;;;;;20.90;55.05;99367.94;5094940;28;20215;-51
2022/06/11 08:00:52;;;;;;;3.73;2.67;;;;;;;20.93;54.12;99372.84;5093780;28;20643;-53
2022/06/11 08:03:21;;;;;;;6.30;2.53;;;;;;;21.02;55.58;99373.50;5093615;28;20588;-51
2022/06/11 08:05:51;;;;;;;3.83;2.30;;;;;;;21.10;53.73;99367.16;5094611;28;20218;-54
2022/06/11 08:08:20;;;;;;;8.30;2.67;;;;;;;21.16;54.07;99366.34;5094434;28;20221;-52
2022/06/11 08:10:47;;;;;;;6.83;2.97;;;;;;;21.21;53.97;99373.69;5094194;28;20202;-53
2022/06/11 08:13:16;;;;;;;6.77;2.40;;;;;;;21.26;52.75;99373.13;5093187;28;20271;-53
2022/06/11 08:15:45;;;;;;;6.20;2.60;;;;;;;21.28;53.18;99371.88;5094831;28;20200;-54
2022/06/11 08:18:13;;;;;;;5.50;2.97;;;;;;;21.17;53.65;99372.50;5093941;28;20210;-54
2022/06/11 08:20:41;;;;;;;4.23;2.50;;;;;;;21.22;54.30;99368.22;5093864;28;20206;-52
2022/06/11 08:23:10;;;;;;;3.93;2.50;;;;;;;21.31;53.74;99379.44;5093764;28;20712;-52
2022/06/11 08:25:38;;;;;;;4.30;2.40;;;;;;;21.26;53.30;99387.19;5094540;28;20193;-51
2022/06/11 08:28:05;;;;;;;6.10;2.87;;;;;;;21.41;52.33;99380.88;5093746;28;20218;-51
2022/06/11 08:30:34;;;;;;;7.00;2.80;;;;;;;21.38;53.13;99384.78;5094645;28;20187;-53
2022/06/11 08:33:01;;;;;;;4.57;2.90;;;;;;;21.61;51.92;99381.72;5094319;28;20526;-51
2022/06/11 08:35:31;;;;;;;4.80;2.60;;;;;;;21.52;52.38;99388.25;5094380;28;20221;-51
2022/06/11 08:37:58;;;;;;;5.07;3.00;;;;;;;21.43;51.93;99382.31;5093837;28;20298;-52
2022/06/11 08:40:31;;;;;;;5.73;2.50;;;;;;;21.56;52.74;99381.50;5094460;28;20197;-51
2022/06/11 08:43:01;;;;;;;8.83;2.90;;;;;;;21.77;51.97;99387.66;5092833;28;20208;-54
2022/06/11 08:45:37;;;;;;;7.83;3.00;;;;;;;21.74;51.25;99377.44;5093984;28;20199;-54
2022/06/11 08:48:14;;;;;;;6.13;3.10;;;;;;;21.82;52.57;99382.56;5093864;28;20678;-52
2022/06/11 08:50:59;;;;;;;7.83;2.80;;;;;;;21.83;51.64;99387.63;5093899;28;20212;-51
2022/06/11 08:53:26;;;;;;;7.20;3.63;;;;;;;21.79;52.61;99381.09;5093747;28;20178;-51
2022/06/11 08:55:56;;;;;;;10.23;3.87;;;;;;;21.77;51.83;99382.34;5093838;28;20181;-52
2022/06/11 08:58:38;;;;;;;8.40;3.50;;;;;;;21.83;51.63;99368.25;5093333;28;20208;-52
2022/06/11 09:01:15;;;;;;;7.80;3.60;;;;;;;21.94;53.62;99378.25;5093527;28;20204;-52
2022/06/11 09:04:00;;;;;;;8.63;4.10;;;;;;;22.11;53.75;99375.94;5093600;28;20184;-53
2022/06/11 09:06:47;;;;;;;8.83;3.80;;;;;;;22.15;54.15;99379.03;5093947;28;20719;-54
2022/06/11 09:09:23;;;;;;;10.33;3.73;;;;;;;22.13;53.64;99362.47;5093146;28;20704;-51
2022/06/11 09:12:32;;;;;;;6.07;3.37;;;;;;;22.37;52.80;99366.28;5094295;28;20648;-52
2022/06/11 09:15:22;;;;;;;7.53;3.23;;;;;;;22.24;50.66;99359.16;5093527;28;20214;-53
2022/06/11 09:18:20;;;;;;;6.63;3.17;;;;;;;22.29;51.68;99357.69;5093055;28;20212;-52
2022/06/11 09:20:57;;;;;;;7.67;3.20;;;;;;;22.38;50.03;99372.38;5093242;28;20186;-53
2022/06/11 09:23:51;;;;;;;7.47;3.20;;;;;;;22.23;49.65;99370.81;5092181;28;20195;-51
2022/06/11 09:26:37;;;;;;;7.33;3.00;;;;;;;22.36;50.01;99364.63;5093194;28;20733;-51
2022/06/11 09:29:13;;;;;;;7.30;2.60;;;;;;;22.45;50.37;99372.41;5093013;28;20265;-51
2022/06/11 09:31:47;;;;;;;9.67;2.90;;;;;;;22.50;49.86;99356.63;5093704;28;20659;-54
2022/06/11 09:34:16;;;;;;;7.13;2.30;;;;;;;22.74;48.61;99368.38;5092526;28;20186;-53
2022/06/11 09:36:50;;;;;;;5.30;2.10;;;;;;;22.87;48.00;99369.34;5093236;28;20179;-53
2022/06/11 09:39:35;;;;;;;4.67;2.20;;;;;;;22.97;46.59;99364.38;5093104;28;20210;-51
2022/06/11 09:42:17;;;;;;;6.60;2.40;;;;;;;22.81;48.48;99361.19;5093329;28;20688;-54
2022/06/11 09:44:53;;;;;;;4.77;2.40;;;;;;;22.90;49.22;99368.94;5091999;28;20298;-51
2022/06/11 09:47:31;;;;;;;7.30;2.67;;;;;;;23.07;47.37;99361.25;5093417;28;20210;-52
2022/06/11 09:50:08;;;;;;;4.33;1.90;;;;;;;23.05;46.40;99364.13;5091905;28;20217;-51
2022/06/11 09:52:40;;;;;;;6.27;2.00;;;;;;;23.11;48.28;99365.09;5093276;28;20191;-53
2022/06/11 09:55:22;;;;;;;5.60;1.80;;;;;;;23.19;46.17;99367.50;5093650;28;20204;-52
2022/06/11 09:58:01;;;;;;;6.70;1.80;;;;;;;23.24;45.35;99370.38;5093099;28;20273;-54
2022/06/11 10:00:34;;;;;;;4.07;1.73;;;;;;;23.25;45.09;99369.34;5092050;28;20204;-53
2022/06/11 10:03:13;;;;;;;3.80;1.50;;;;;;;23.26;44.70;99367.50;5091490;28;20257;-54
2022/06/11 10:05:46;;;;;;;7.10;1.63;;;;;;;23.41;42.40;99367.97;5092650;28;20269;-54
2022/06/11 10:08:19;;;;;;;4.47;1.80;;;;;;;23.41;43.25;99375.16;5092241;28;20275;-54
2022/06/11 10:10:48;;;;;;;8.53;1.87;;;;;;;23.56;42.37;99364.19;5094729;28;20201;-52
2022/06/11 10:13:30;;;;;;;4.17;2.00;;;;;;;23.71;43.08;99370.00;5094039;28;20184;-51
2022/06/11 10:16:05;;;;;;;7.07;1.97;;;;;;;23.79;42.91;99368.91;5094538;28;20747;-54
2022/06/11 10:18:35;;;;;;;7.17;2.37;;;;;;;23.73;42.38;99370.59;5094548;28;20245;-54
2022/06/11 10:21:09;;;;;;;7.10;1.83;;;;;;;23.79;44.44;99376.09;5093448;28;20193;-54
2022/06/11 10:23:41;;;;;;;7.93;2.43;;;;;;;23.90;42.77;99375.38;5092627;28;20188;-51
2022/06/11 10:26:14;;;;;;;5.30;1.97;;;;;;;23.84;42.46;99371.75;5092402;28;20233;-51
2022/06/11 10:28:50;;;;;;;5.40;1.90;;;;;;;24.00;42.29;99369.53;5092924;28;20244;-52
2022/06/11 10:31:21;;;;;;;7.57;2.03;;;;;;;24.17;42.30;99372.47;5092974;28;20189;-51
2022/06/11 10:33:52;;;;;;;5.03;1.90;;;;;;;24.20;42.06;99369.34;5092672;28;20196;-51
2022/06/11 10:36:23;;;;;;;6.37;2.00;;;;;;;24.20;42.34;99369.34;5091445;28;20308;-52
2022/06/11 10:38:55;;;;;;;5.17;2.57;;;;;;;24.20;42.74;99372.00;5092977;28;20566;-52
2022/06/11 10:41:30;;;;;;;4.80;2.43;;;;;;;24.19;42.39;99367.72;5092798;28;20185;-51
2022/06/11 10:44:10;;;;;;;5.67;1.90;;;;;;;24.34;43.50;99366.53;5092341;28;20178;-54
2022/06/11 10:46:40;;;;;;;5.97;1.90;;;;;;;24.24;39.51;99357.19;5094193;28;20246;-52
2022/06/11 10:49:13;;;;;;;5.17;1.47;;;;;;;24.46;38.76;99364.72;5096071;28;20207;-53
2022/06/11 10:51:44;;;;;;;6.90;2.00;;;;;;;24.33;40.06;99352.38;5096061;28;20643;-51
2022/06/11 10:54:16;;;;;;;7.47;1.90;;;;;;;24.43;39.80;99354.50;5096348;28;20272;-53
2022/06/11 10:56:47;;;;;;;7.00;1.80;;;;;;;24.53;38.46;99348.63;5096499;28;20197;-52
2022/06/11 10:59:24;;;;;;;4.63;1.50;;;;;;;24.62;39.37;99356.09;5096223;28;20609;-52
2022/06/11 11:02:00;;;;;;;4.57;1.80;;;;;;;24.70;38.83;99352.31;5096393;28;20209;-51
2022/06/11 11:04:41;;;;;;;7.80;1.60;;;;;;;24.97;40.08;99354.63;5095888;28;20647;-53
2022/06/11 11:07:12;;;;;;;5.37;1.83;;;;;;;24.91;39.47;99353.69;5096278;28;20224;-52
2022/06/11 11:09:39;;;;;;;6.30;2.00;;;;;;;25.05;38.54;99340.94;5096287;28;20218;-53
2022/06/11 11:12:10;;;;;;;5.13;1.40;;;;;;;25.06;38.11;99339.09;5095956;28;20191;-51
2022/06/11 11:14:41;;;;;;;5.43;1.50;;;;;;;25.20;39.56;99335.19;5094635;28;20245;-54
2022/06/11 11:17:16;;;;;;;4.97;1.70;;;;;;;25.42;39.82;99339.16;5094667;28;20672;-52
2022/06/11 11:20:29;;;;;;;4.50;1.70;;;;;;;25.18;38.33;99342.63;5095583;28;20188;-51
2022/06/11 11:22:35;;;;;;;3.80;1.53;;;;;;;25.19;37.12;99332.72;5095394;28;20214;-54
2022/06/11 11:25:07;;;;;;;3.10;1.43;;;;;;;25.32;38.88;99337.06;5095553;28;20184;-52
2022/06/11 11:27:44;;;;;;;6.40;1.87;;;;;;;25.41;40.91;99333.00;5095142;28;20207;-52
2022/06/11 11:30:24;;;;;;;2.53;1.50;;;;;;;25.46;37.79;99335.00;5095900;28;20206;-53
2022/06/11 11:32:53;;;;;;;4.57;1.47;;;;;;;25.25;39.53;99339.03;5095876;28;20198;-52
2022/06/11 11:35:24;;;;;;;4.70;1.83;;;;;;;25.11;40.36;99328.53;5095701;28;20187;-54
2022/06/11 11:38:01;;;;;;;7.77;1.87;;;;;;;25.21;40.26;99341.34;5095394;28;20206;-51
2022/06/11 11:40:30;;;;;;;6.00;1.60;;;;;;;25.24;39.50;99326.72;5095367;28;20194;-53
2022/06/11 11:43:02;;;;;;;4.70;1.67;;;;;;;25.29;38.95;99330.31;5095189;28;20290;-51
2022/06/11 11:45:41;;;;;;;7.13;1.67;;;;;;;25.41;39.80;99332.19;5095283;28;20237;-54
2022/06/11 11:48:15;;;;;;;4.23;2.00;;;;;;;25.39;37.77;99320.91;5095294;28;20247;-52
2022/06/11 11:50:44;;;;;;;6.57;1.83;;;;;;;25.48;38.50;99323.03;5095516;28;20198;-52
2022/06/11 11:53:20;;;;;;;4.67;1.77;;;;;;;25.56;39.57;99332.56;5095409;28;20195;-54
2022/06/11 11:55:56;;;;;;;6.23;2.00;;;;;;;25.57;38.64;99323.50;5094095;28;20537;-51
2022/06/11 11:58:30;;;;;;;7.80;2.00;;;;;;;25.66;37.46;99323.97;5092617;28;20295;-52